sensor_id;sensor_type;location;lat;lon;timestamp;temperature;humidity
37446;DHT22;23307;51.136;14.942;2023-04-24T00:00:40;14.00;99.90
37446;DHT22;23307;51.136;14.942;2023-04-24T00:03:06;13.90;99.90
37446;DHT22;23307;51.136;14.942;2023-04-24T00:05:32;13.80;99.90
37446;DHT22;23307;51.136;14.942;2023-04-24T00:07:58;13.80;99.90
37446;DHT22;23307;51.136;14.942;2023-04-24T00:10:23;13.80;99.90
37446;DHT22;23307;51.136;14.942;2023-04-24T00:12:49;13.80;99.90
37446;DHT22;23307;51.136;14.942;2023-04-24T00:15:14;13.80;99.90
37446;DHT22;23307;51.136;14.942;2023-04-24T00:17:40;13.70;99.90
37446;DHT22;23307;51.136;14.942;2023-04-24T00:20:06;13.70;99.90
37446;DHT22;23307;51.136;14.942;2023-04-24T00:22:32;13.70;99.90
37446;DHT22;23307;51.136;14.942;2023-04-24T00:24:58;13.70;99.90
37446;DHT22;23307;51.136;14.942;2023-04-24T00:27:23;13.70;99.90
37446;DHT22;23307;51.136;14.942;2023-04-24T00:29:49;13.60;99.90
37446;DHT22;23307;51.136;14.942;2023-04-24T00:32:14;13.60;99.90
37446;DHT22;23307;51.136;14.942;2023-04-24T00:34:40;13.60;99.90
37446;DHT22;23307;51.136;14.942;2023-04-24T00:37:06;13.60;99.90
37446;DHT22;23307;51.136;14.942;2023-04-24T00:39:32;13.60;99.90
37446;DHT22;23307;51.136;14.942;2023-04-24T00:41:57;13.60;99.90
37446;DHT22;23307;51.136;14.942;2023-04-24T00:44:23;13.60;99.90
37446;DHT22;23307;51.136;14.942;2023-04-24T00:46:49;13.50;99.90
37446;DHT22;23307;51.136;14.942;2023-04-24T00:49:20;13.50;99.90
37446;DHT22;23307;51.136;14.942;2023-04-24T00:51:46;13.50;99.90
37446;DHT22;23307;51.136;14.942;2023-04-24T00:54:13;13.50;99.90
37446;DHT22;23307;51.136;14.942;2023-04-24T00:56:39;13.50;99.90
37446;DHT22;23307;51.136;14.942;2023-04-24T00:59:05;13.50;99.90
37446;DHT22;23307;51.136;14.942;2023-04-24T01:01:31;13.50;99.90
37446;DHT22;23307;51.136;14.942;2023-04-24T01:03:58;13.50;99.90
37446;DHT22;23307;51.136;14.942;2023-04-24T01:06:27;13.60;99.90
37446;DHT22;23307;51.136;14.942;2023-04-24T01:08:54;13.60;99.90
37446;DHT22;23307;51.136;14.942;2023-04-24T01:11:21;13.70;99.90
37446;DHT22;23307;51.136;14.942;2023-04-24T01:13:47;13.70;99.90
37446;DHT22;23307;51.136;14.942;2023-04-24T01:16:14;13.70;99.90
37446;DHT22;23307;51.136;14.942;2023-04-24T01:18:40;13.60;99.90
37446;DHT22;23307;51.136;14.942;2023-04-24T01:21:08;13.50;99.90
37446;DHT22;23307;51.136;14.942;2023-04-24T01:23:33;13.40;99.90
37446;DHT22;23307;51.136;14.942;2023-04-24T01:25:59;13.30;99.90
37446;DHT22;23307;51.136;14.942;2023-04-24T01:28:25;13.30;99.90
37446;DHT22;23307;51.136;14.942;2023-04-24T01:30:50;13.30;99.90
37446;DHT22;23307;51.136;14.942;2023-04-24T01:33:16;13.30;99.90
37446;DHT22;23307;51.136;14.942;2023-04-24T01:35:42;13.20;99.90
37446;DHT22;23307;51.136;14.942;2023-04-24T01:38:08;13.20;99.90
37446;DHT22;23307;51.136;14.942;2023-04-24T01:40:33;13.20;99.90
37446;DHT22;23307;51.136;14.942;2023-04-24T01:43:00;13.10;99.90
37446;DHT22;23307;51.136;14.942;2023-04-24T01:45:25;13.10;99.90
37446;DHT22;23307;51.136;14.942;2023-04-24T01:47:51;13.10;99.90
37446;DHT22;23307;51.136;14.942;2023-04-24T01:50:17;13.00;99.90
37446;DHT22;23307;51.136;14.942;2023-04-24T01:52:43;13.00;99.90
37446;DHT22;23307;51.136;14.942;2023-04-24T01:55:09;13.00;99.90
37446;DHT22;23307;51.136;14.942;2023-04-24T01:57:35;13.00;99.90
37446;DHT22;23307;51.136;14.942;2023-04-24T02:00:01;13.00;99.90
37446;DHT22;23307;51.136;14.942;2023-04-24T02:02:28;13.00;99.90
37446;DHT22;23307;51.136;14.942;2023-04-24T02:04:55;13.00;99.90
37446;DHT22;23307;51.136;14.942;2023-04-24T02:07:20;13.00;99.90
37446;DHT22;23307;51.136;14.942;2023-04-24T02:09:46;13.10;99.90
37446;DHT22;23307;51.136;14.942;2023-04-24T02:12:11;13.10;99.90
37446;DHT22;23307;51.136;14.942;2023-04-24T02:14:37;13.10;99.90
37446;DHT22;23307;51.136;14.942;2023-04-24T02:17:03;13.10;99.90
37446;DHT22;23307;51.136;14.942;2023-04-24T02:19:28;13.10;99.90
37446;DHT22;23307;51.136;14.942;2023-04-24T02:21:54;13.20;99.90
37446;DHT22;23307;51.136;14.942;2023-04-24T02:24:19;13.10;99.90
37446;DHT22;23307;51.136;14.942;2023-04-24T02:26:45;13.10;99.90
37446;DHT22;23307;51.136;14.942;2023-04-24T02:29:10;13.00;99.90
37446;DHT22;23307;51.136;14.942;2023-04-24T02:31:36;13.00;99.90
37446;DHT22;23307;51.136;14.942;2023-04-24T02:34:01;13.00;99.90
37446;DHT22;23307;51.136;14.942;2023-04-24T02:36:27;13.10;99.90
37446;DHT22;23307;51.136;14.942;2023-04-24T02:38:52;13.10;99.90
37446;DHT22;23307;51.136;14.942;2023-04-24T02:41:18;13.10;99.90
37446;DHT22;23307;51.136;14.942;2023-04-24T02:43:43;13.20;99.90
37446;DHT22;23307;51.136;14.942;2023-04-24T02:46:09;13.30;99.90
37446;DHT22;23307;51.136;14.942;2023-04-24T02:48:34;13.30;99.90
37446;DHT22;23307;51.136;14.942;2023-04-24T02:51:00;13.30;99.90
37446;DHT22;23307;51.136;14.942;2023-04-24T02:53:25;13.40;99.90
37446;DHT22;23307;51.136;14.942;2023-04-24T02:55:51;13.40;99.90
37446;DHT22;23307;51.136;14.942;2023-04-24T02:58:17;13.40;99.90
37446;DHT22;23307;51.136;14.942;2023-04-24T03:00:42;13.50;99.90
37446;DHT22;23307;51.136;14.942;2023-04-24T03:03:08;13.50;99.90
37446;DHT22;23307;51.136;14.942;2023-04-24T03:05:34;13.50;99.90
37446;DHT22;23307;51.136;14.942;2023-04-24T03:07:59;13.50;99.90
37446;DHT22;23307;51.136;14.942;2023-04-24T03:10:25;13.60;99.90
37446;DHT22;23307;51.136;14.942;2023-04-24T03:12:51;13.60;99.90
37446;DHT22;23307;51.136;14.942;2023-04-24T03:15:16;13.60;99.90
37446;DHT22;23307;51.136;14.942;2023-04-24T03:17:42;13.60;99.90
37446;DHT22;23307;51.136;14.942;2023-04-24T03:20:08;13.60;99.90
37446;DHT22;23307;51.136;14.942;2023-04-24T03:22:34;13.60;99.90
37446;DHT22;23307;51.136;14.942;2023-04-24T03:25:00;13.60;99.90
37446;DHT22;23307;51.136;14.942;2023-04-24T03:27:26;13.60;99.90
37446;DHT22;23307;51.136;14.942;2023-04-24T03:29:51;13.60;99.90
37446;DHT22;23307;51.136;14.942;2023-04-24T03:32:23;13.60;99.90
37446;DHT22;23307;51.136;14.942;2023-04-24T03:34:49;13.60;99.90
37446;DHT22;23307;51.136;14.942;2023-04-24T03:37:15;13.60;99.90
37446;DHT22;23307;51.136;14.942;2023-04-24T03:39:41;13.60;99.90
37446;DHT22;23307;51.136;14.942;2023-04-24T03:42:07;13.60;99.90
37446;DHT22;23307;51.136;14.942;2023-04-24T03:44:34;13.60;99.90
37446;DHT22;23307;51.136;14.942;2023-04-24T03:46:59;13.60;99.90
37446;DHT22;23307;51.136;14.942;2023-04-24T03:49:25;13.60;99.90
37446;DHT22;23307;51.136;14.942;2023-04-24T03:51:51;13.60;99.90
37446;DHT22;23307;51.136;14.942;2023-04-24T03:54:17;13.60;99.90
37446;DHT22;23307;51.136;14.942;2023-04-24T03:56:43;13.60;99.90
37446;DHT22;23307;51.136;14.942;2023-04-24T03:59:08;13.60;99.90
37446;DHT22;23307;51.136;14.942;2023-04-24T04:01:34;13.60;99.90
37446;DHT22;23307;51.136;14.942;2023-04-24T04:04:02;13.60;99.90
37446;DHT22;23307;51.136;14.942;2023-04-24T04:06:28;13.60;99.90
37446;DHT22;23307;51.136;14.942;2023-04-24T04:08:54;13.60;99.90
37446;DHT22;23307;51.136;14.942;2023-04-24T04:11:19;13.60;99.90
37446;DHT22;23307;51.136;14.942;2023-04-24T04:13:45;13.60;99.90
37446;DHT22;23307;51.136;14.942;2023-04-24T04:16:13;13.60;99.90
37446;DHT22;23307;51.136;14.942;2023-04-24T04:18:38;13.60;99.90
37446;DHT22;23307;51.136;14.942;2023-04-24T04:21:04;13.60;99.90
37446;DHT22;23307;51.136;14.942;2023-04-24T04:23:29;13.60;99.90
37446;DHT22;23307;51.136;14.942;2023-04-24T04:25:55;13.60;99.90
37446;DHT22;23307;51.136;14.942;2023-04-24T04:28:20;13.60;99.90
37446;DHT22;23307;51.136;14.942;2023-04-24T04:30:46;13.60;99.90
37446;DHT22;23307;51.136;14.942;2023-04-24T04:33:12;13.70;99.90
37446;DHT22;23307;51.136;14.942;2023-04-24T04:35:38;13.60;99.90
37446;DHT22;23307;51.136;14.942;2023-04-24T04:38:03;13.70;99.90
37446;DHT22;23307;51.136;14.942;2023-04-24T04:40:30;13.60;99.90
37446;DHT22;23307;51.136;14.942;2023-04-24T04:42:55;13.60;99.90
37446;DHT22;23307;51.136;14.942;2023-04-24T04:45:21;13.60;99.90
37446;DHT22;23307;51.136;14.942;2023-04-24T04:47:47;13.60;99.90
37446;DHT22;23307;51.136;14.942;2023-04-24T04:50:12;13.60;99.90
37446;DHT22;23307;51.136;14.942;2023-04-24T04:52:38;13.60;99.90
37446;DHT22;23307;51.136;14.942;2023-04-24T04:55:04;13.60;99.90
37446;DHT22;23307;51.136;14.942;2023-04-24T04:57:30;13.60;99.90
37446;DHT22;23307;51.136;14.942;2023-04-24T04:59:56;13.60;99.90
37446;DHT22;23307;51.136;14.942;2023-04-24T05:02:22;13.60;99.90
37446;DHT22;23307;51.136;14.942;2023-04-24T05:04:47;13.50;99.90
37446;DHT22;23307;51.136;14.942;2023-04-24T05:07:13;13.60;99.90
37446;DHT22;23307;51.136;14.942;2023-04-24T05:09:38;13.60;99.90
37446;DHT22;23307;51.136;14.942;2023-04-24T05:12:04;13.60;99.90
37446;DHT22;23307;51.136;14.942;2023-04-24T05:14:29;13.60;99.90
37446;DHT22;23307;51.136;14.942;2023-04-24T05:16:55;13.60;99.90
37446;DHT22;23307;51.136;14.942;2023-04-24T05:19:20;13.70;99.90
37446;DHT22;23307;51.136;14.942;2023-04-24T05:21:46;13.70;99.90
37446;DHT22;23307;51.136;14.942;2023-04-24T05:24:11;13.80;99.90
37446;DHT22;23307;51.136;14.942;2023-04-24T05:26:37;13.80;99.90
37446;DHT22;23307;51.136;14.942;2023-04-24T05:29:03;13.90;99.90
37446;DHT22;23307;51.136;14.942;2023-04-24T05:31:28;14.00;99.90
37446;DHT22;23307;51.136;14.942;2023-04-24T05:33:54;14.10;99.90
37446;DHT22;23307;51.136;14.942;2023-04-24T05:36:19;14.20;99.90
37446;DHT22;23307;51.136;14.942;2023-04-24T05:38:45;14.30;99.90
37446;DHT22;23307;51.136;14.942;2023-04-24T05:41:10;14.30;99.90
37446;DHT22;23307;51.136;14.942;2023-04-24T05:43:36;14.40;99.90
37446;DHT22;23307;51.136;14.942;2023-04-24T05:46:01;14.40;99.90
37446;DHT22;23307;51.136;14.942;2023-04-24T05:48:27;14.50;99.90
37446;DHT22;23307;51.136;14.942;2023-04-24T05:50:52;14.60;99.90
37446;DHT22;23307;51.136;14.942;2023-04-24T05:53:18;14.60;99.90
37446;DHT22;23307;51.136;14.942;2023-04-24T05:55:44;14.60;99.90
37446;DHT22;23307;51.136;14.942;2023-04-24T05:58:10;14.70;99.90
37446;DHT22;23307;51.136;14.942;2023-04-24T06:00:36;14.70;99.90
37446;DHT22;23307;51.136;14.942;2023-04-24T06:03:01;14.70;99.90
37446;DHT22;23307;51.136;14.942;2023-04-24T06:05:29;14.80;99.90
37446;DHT22;23307;51.136;14.942;2023-04-24T06:07:55;14.80;99.90
37446;DHT22;23307;51.136;14.942;2023-04-24T06:10:21;14.80;99.90
37446;DHT22;23307;51.136;14.942;2023-04-24T06:12:46;14.90;99.90
37446;DHT22;23307;51.136;14.942;2023-04-24T06:15:12;14.90;99.90
37446;DHT22;23307;51.136;14.942;2023-04-24T06:17:38;15.00;99.90
37446;DHT22;23307;51.136;14.942;2023-04-24T06:20:04;15.10;99.90
37446;DHT22;23307;51.136;14.942;2023-04-24T06:22:31;15.20;99.90
37446;DHT22;23307;51.136;14.942;2023-04-24T06:24:57;15.20;99.90
37446;DHT22;23307;51.136;14.942;2023-04-24T06:27:22;15.20;99.90
37446;DHT22;23307;51.136;14.942;2023-04-24T06:29:48;15.20;99.90
37446;DHT22;23307;51.136;14.942;2023-04-24T06:32:23;15.10;99.90
37446;DHT22;23307;51.136;14.942;2023-04-24T06:34:49;15.10;99.90
37446;DHT22;23307;51.136;14.942;2023-04-24T06:37:15;15.20;99.90
37446;DHT22;23307;51.136;14.942;2023-04-24T06:39:41;15.20;99.90
37446;DHT22;23307;51.136;14.942;2023-04-24T06:42:07;15.30;99.90
37446;DHT22;23307;51.136;14.942;2023-04-24T06:44:34;15.30;99.90
37446;DHT22;23307;51.136;14.942;2023-04-24T06:47:08;15.40;99.90
37446;DHT22;23307;51.136;14.942;2023-04-24T06:49:37;15.50;99.90
37446;DHT22;23307;51.136;14.942;2023-04-24T06:52:03;15.50;99.90
37446;DHT22;23307;51.136;14.942;2023-04-24T06:54:29;15.50;99.90
37446;DHT22;23307;51.136;14.942;2023-04-24T06:56:55;15.60;99.90
37446;DHT22;23307;51.136;14.942;2023-04-24T06:59:25;15.60;99.90
37446;DHT22;23307;51.136;14.942;2023-04-24T07:01:51;15.60;99.90
37446;DHT22;23307;51.136;14.942;2023-04-24T07:04:17;15.60;99.90
37446;DHT22;23307;51.136;14.942;2023-04-24T07:06:43;15.60;99.90
37446;DHT22;23307;51.136;14.942;2023-04-24T07:09:08;15.50;99.90
37446;DHT22;23307;51.136;14.942;2023-04-24T07:11:35;15.50;99.90
37446;DHT22;23307;51.136;14.942;2023-04-24T07:14:00;15.50;99.90
37446;DHT22;23307;51.136;14.942;2023-04-24T07:16:26;15.50;99.90
37446;DHT22;23307;51.136;14.942;2023-04-24T07:18:52;15.50;99.90
37446;DHT22;23307;51.136;14.942;2023-04-24T07:21:17;15.50;99.90
37446;DHT22;23307;51.136;14.942;2023-04-24T07:23:43;15.50;99.90
37446;DHT22;23307;51.136;14.942;2023-04-24T07:26:08;15.50;99.90
37446;DHT22;23307;51.136;14.942;2023-04-24T07:28:34;15.50;99.90
37446;DHT22;23307;51.136;14.942;2023-04-24T07:30:59;15.50;99.90
37446;DHT22;23307;51.136;14.942;2023-04-24T07:33:26;15.50;99.90
37446;DHT22;23307;51.136;14.942;2023-04-24T07:35:52;15.50;99.90
37446;DHT22;23307;51.136;14.942;2023-04-24T07:38:18;15.50;99.90
37446;DHT22;23307;51.136;14.942;2023-04-24T07:40:46;15.50;99.90
37446;DHT22;23307;51.136;14.942;2023-04-24T07:43:12;15.50;99.90
37446;DHT22;23307;51.136;14.942;2023-04-24T07:45:37;15.50;99.90
37446;DHT22;23307;51.136;14.942;2023-04-24T07:48:04;15.60;99.90
37446;DHT22;23307;51.136;14.942;2023-04-24T07:50:30;15.60;99.90
37446;DHT22;23307;51.136;14.942;2023-04-24T07:52:56;15.50;99.90
37446;DHT22;23307;51.136;14.942;2023-04-24T07:55:21;15.50;99.90
37446;DHT22;23307;51.136;14.942;2023-04-24T07:57:47;15.50;99.90
37446;DHT22;23307;51.136;14.942;2023-04-24T08:00:12;15.50;99.90
37446;DHT22;23307;51.136;14.942;2023-04-24T08:02:38;15.50;99.90
37446;DHT22;23307;51.136;14.942;2023-04-24T08:05:04;15.40;99.90
37446;DHT22;23307;51.136;14.942;2023-04-24T08:07:30;15.40;99.90
37446;DHT22;23307;51.136;14.942;2023-04-24T08:09:56;15.40;99.90
37446;DHT22;23307;51.136;14.942;2023-04-24T08:12:21;15.30;99.90
37446;DHT22;23307;51.136;14.942;2023-04-24T08:14:47;15.30;99.90
37446;DHT22;23307;51.136;14.942;2023-04-24T08:17:12;15.30;99.90
37446;DHT22;23307;51.136;14.942;2023-04-24T08:19:40;15.30;99.90
37446;DHT22;23307;51.136;14.942;2023-04-24T08:22:16;15.30;99.90
37446;DHT22;23307;51.136;14.942;2023-04-24T08:24:42;15.30;99.90
37446;DHT22;23307;51.136;14.942;2023-04-24T08:27:09;15.30;99.90
37446;DHT22;23307;51.136;14.942;2023-04-24T08:29:34;15.20;99.90
37446;DHT22;23307;51.136;14.942;2023-04-24T08:32:00;15.20;99.90
37446;DHT22;23307;51.136;14.942;2023-04-24T08:34:25;15.20;99.90
37446;DHT22;23307;51.136;14.942;2023-04-24T08:36:51;15.10;99.90
37446;DHT22;23307;51.136;14.942;2023-04-24T08:39:17;15.10;99.90
37446;DHT22;23307;51.136;14.942;2023-04-24T08:41:43;15.10;99.90
37446;DHT22;23307;51.136;14.942;2023-04-24T08:44:11;15.10;99.90
37446;DHT22;23307;51.136;14.942;2023-04-24T08:46:37;15.20;99.90
37446;DHT22;23307;51.136;14.942;2023-04-24T08:49:03;15.20;99.90
37446;DHT22;23307;51.136;14.942;2023-04-24T08:51:31;15.30;99.90
37446;DHT22;23307;51.136;14.942;2023-04-24T08:53:57;15.30;99.90
37446;DHT22;23307;51.136;14.942;2023-04-24T08:56:22;15.40;99.90
37446;DHT22;23307;51.136;14.942;2023-04-24T08:58:50;15.50;99.90
37446;DHT22;23307;51.136;14.942;2023-04-24T09:01:16;15.60;99.90
37446;DHT22;23307;51.136;14.942;2023-04-24T09:03:43;15.70;99.90
37446;DHT22;23307;51.136;14.942;2023-04-24T09:06:10;15.70;99.90
37446;DHT22;23307;51.136;14.942;2023-04-24T09:08:36;15.80;99.90
37446;DHT22;23307;51.136;14.942;2023-04-24T09:11:03;15.80;99.90
37446;DHT22;23307;51.136;14.942;2023-04-24T09:13:30;15.90;99.90
37446;DHT22;23307;51.136;14.942;2023-04-24T09:15:56;16.00;99.90
37446;DHT22;23307;51.136;14.942;2023-04-24T09:18:22;16.20;99.90
37446;DHT22;23307;51.136;14.942;2023-04-24T09:20:59;16.40;99.90
37446;DHT22;23307;51.136;14.942;2023-04-24T09:23:31;16.60;99.90
37446;DHT22;23307;51.136;14.942;2023-04-24T09:25:58;16.80;99.90
37446;DHT22;23307;51.136;14.942;2023-04-24T09:28:29;16.80;99.90
37446;DHT22;23307;51.136;14.942;2023-04-24T09:31:08;16.90;99.90
37446;DHT22;23307;51.136;14.942;2023-04-24T09:33:34;16.80;99.90
37446;DHT22;23307;51.136;14.942;2023-04-24T09:36:00;16.80;99.90
37446;DHT22;23307;51.136;14.942;2023-04-24T09:38:38;16.90;99.90
37446;DHT22;23307;51.136;14.942;2023-04-24T09:41:08;16.90;99.90
37446;DHT22;23307;51.136;14.942;2023-04-24T09:43:34;16.90;99.90
37446;DHT22;23307;51.136;14.942;2023-04-24T09:46:07;16.90;99.90
37446;DHT22;23307;51.136;14.942;2023-04-24T09:48:36;16.90;99.90
37446;DHT22;23307;51.136;14.942;2023-04-24T09:51:04;17.00;99.90
37446;DHT22;23307;51.136;14.942;2023-04-24T09:53:32;17.00;99.90
37446;DHT22;23307;51.136;14.942;2023-04-24T09:56:08;17.10;99.90
37446;DHT22;23307;51.136;14.942;2023-04-24T09:58:35;17.10;99.90
37446;DHT22;23307;51.136;14.942;2023-04-24T10:01:01;17.10;99.90
37446;DHT22;23307;51.136;14.942;2023-04-24T10:03:30;17.10;99.90
37446;DHT22;23307;51.136;14.942;2023-04-24T10:05:59;17.00;99.90
37446;DHT22;23307;51.136;14.942;2023-04-24T10:08:25;17.10;99.90
37446;DHT22;23307;51.136;14.942;2023-04-24T10:10:52;17.20;99.90
37446;DHT22;23307;51.136;14.942;2023-04-24T10:13:17;17.30;99.90
37446;DHT22;23307;51.136;14.942;2023-04-24T10:15:43;17.40;99.90
37446;DHT22;23307;51.136;14.942;2023-04-24T10:18:09;17.50;99.90
37446;DHT22;23307;51.136;14.942;2023-04-24T10:20:37;17.50;99.90
37446;DHT22;23307;51.136;14.942;2023-04-24T10:23:04;17.70;99.90
37446;DHT22;23307;51.136;14.942;2023-04-24T10:25:32;17.90;99.90
37446;DHT22;23307;51.136;14.942;2023-04-24T10:27:59;18.00;99.90
37446;DHT22;23307;51.136;14.942;2023-04-24T10:30:27;17.90;99.90
37446;DHT22;23307;51.136;14.942;2023-04-24T10:32:53;17.90;99.90
37446;DHT22;23307;51.136;14.942;2023-04-24T10:35:18;17.80;99.90
37446;DHT22;23307;51.136;14.942;2023-04-24T10:37:55;17.70;99.90
37446;DHT22;23307;51.136;14.942;2023-04-24T10:40:30;17.60;99.90
37446;DHT22;23307;51.136;14.942;2023-04-24T10:42:56;17.70;99.90
37446;DHT22;23307;51.136;14.942;2023-04-24T10:45:23;17.90;99.90
37446;DHT22;23307;51.136;14.942;2023-04-24T10:47:59;18.00;99.90
37446;DHT22;23307;51.136;14.942;2023-04-24T10:50:27;18.20;99.90
37446;DHT22;23307;51.136;14.942;2023-04-24T10:52:53;18.50;99.90
37446;DHT22;23307;51.136;14.942;2023-04-24T10:55:44;18.50;99.90
37446;DHT22;23307;51.136;14.942;2023-04-24T10:58:10;18.30;99.90
37446;DHT22;23307;51.136;14.942;2023-04-24T11:00:40;18.30;99.90
37446;DHT22;23307;51.136;14.942;2023-04-24T11:03:12;18.20;99.90
37446;DHT22;23307;51.136;14.942;2023-04-24T11:06:12;18.30;99.90
37446;DHT22;23307;51.136;14.942;2023-04-24T11:08:39;18.30;99.90
37446;DHT22;23307;51.136;14.942;2023-04-24T11:11:15;18.30;99.90
37446;DHT22;23307;51.136;14.942;2023-04-24T11:16:45;18.20;99.90
37446;DHT22;23307;51.136;14.942;2023-04-24T11:21:50;17.80;99.90
37446;DHT22;23307;51.136;14.942;2023-04-24T11:24:38;17.70;99.90
37446;DHT22;23307;51.136;14.942;2023-04-24T11:29:43;17.50;99.90
37446;DHT22;23307;51.136;14.942;2023-04-24T11:32:27;17.40;99.90
37446;DHT22;23307;51.136;14.942;2023-04-24T11:34:58;17.20;99.90
37446;DHT22;23307;51.136;14.942;2023-04-24T11:37:27;17.10;99.90
37446;DHT22;23307;51.136;14.942;2023-04-24T11:39:55;17.10;99.90
37446;DHT22;23307;51.136;14.942;2023-04-24T11:42:22;17.00;99.90
37446;DHT22;23307;51.136;14.942;2023-04-24T11:44:49;17.00;99.90
37446;DHT22;23307;51.136;14.942;2023-04-24T11:47:15;16.90;99.90
37446;DHT22;23307;51.136;14.942;2023-04-24T11:49:41;17.00;99.90
37446;DHT22;23307;51.136;14.942;2023-04-24T11:52:06;17.10;99.90
37446;DHT22;23307;51.136;14.942;2023-04-24T11:54:32;17.20;99.90
37446;DHT22;23307;51.136;14.942;2023-04-24T11:56:58;17.20;99.90
37446;DHT22;23307;51.136;14.942;2023-04-24T11:59:23;17.30;99.90
37446;DHT22;23307;51.136;14.942;2023-04-24T12:01:49;17.40;99.90
37446;DHT22;23307;51.136;14.942;2023-04-24T12:04:16;17.40;99.90
37446;DHT22;23307;51.136;14.942;2023-04-24T12:09:26;17.40;99.90
37446;DHT22;23307;51.136;14.942;2023-04-24T12:11:53;17.40;99.90
37446;DHT22;23307;51.136;14.942;2023-04-24T12:14:19;17.50;99.90
37446;DHT22;23307;51.136;14.942;2023-04-24T12:16:48;17.50;99.90
37446;DHT22;23307;51.136;14.942;2023-04-24T12:19:18;17.60;99.90
37446;DHT22;23307;51.136;14.942;2023-04-24T12:22:04;17.60;99.90
37446;DHT22;23307;51.136;14.942;2023-04-24T12:24:30;17.60;99.90
37446;DHT22;23307;51.136;14.942;2023-04-24T12:26:56;17.60;99.90
37446;DHT22;23307;51.136;14.942;2023-04-24T12:29:23;17.70;99.90
37446;DHT22;23307;51.136;14.942;2023-04-24T12:31:51;17.80;99.90
37446;DHT22;23307;51.136;14.942;2023-04-24T12:34:20;17.80;99.90
37446;DHT22;23307;51.136;14.942;2023-04-24T12:36:47;17.80;99.90
37446;DHT22;23307;51.136;14.942;2023-04-24T12:39:19;17.90;99.90
37446;DHT22;23307;51.136;14.942;2023-04-24T12:41:55;18.00;99.90
37446;DHT22;23307;51.136;14.942;2023-04-24T12:44:32;18.00;99.90
37446;DHT22;23307;51.136;14.942;2023-04-24T12:47:00;18.10;99.90
37446;DHT22;23307;51.136;14.942;2023-04-24T12:49:26;18.30;99.90
37446;DHT22;23307;51.136;14.942;2023-04-24T12:51:51;18.30;99.90
37446;DHT22;23307;51.136;14.942;2023-04-24T12:54:17;18.30;99.90
37446;DHT22;23307;51.136;14.942;2023-04-24T12:56:42;18.40;99.90
37446;DHT22;23307;51.136;14.942;2023-04-24T12:59:08;18.50;99.90
37446;DHT22;23307;51.136;14.942;2023-04-24T13:01:33;18.50;99.90
37446;DHT22;23307;51.136;14.942;2023-04-24T13:03:59;18.60;99.90
37446;DHT22;23307;51.136;14.942;2023-04-24T13:06:24;18.70;99.90
37446;DHT22;23307;51.136;14.942;2023-04-24T13:08:51;18.80;99.90
37446;DHT22;23307;51.136;14.942;2023-04-24T13:11:17;18.80;99.90
37446;DHT22;23307;51.136;14.942;2023-04-24T13:13:43;18.80;99.90
37446;DHT22;23307;51.136;14.942;2023-04-24T13:16:08;18.90;99.90
37446;DHT22;23307;51.136;14.942;2023-04-24T13:18:34;18.90;99.90
37446;DHT22;23307;51.136;14.942;2023-04-24T13:20:59;19.20;99.90
37446;DHT22;23307;51.136;14.942;2023-04-24T13:23:25;19.20;99.90
37446;DHT22;23307;51.136;14.942;2023-04-24T13:25:50;19.40;99.90
37446;DHT22;23307;51.136;14.942;2023-04-24T13:28:16;19.50;99.90
37446;DHT22;23307;51.136;14.942;2023-04-24T13:30:41;19.80;99.90
37446;DHT22;23307;51.136;14.942;2023-04-24T13:33:07;20.10;99.90
37446;DHT22;23307;51.136;14.942;2023-04-24T13:35:32;20.50;99.90
37446;DHT22;23307;51.136;14.942;2023-04-24T13:37:58;20.80;99.50
37446;DHT22;23307;51.136;14.942;2023-04-24T13:40:24;21.10;99.10
37446;DHT22;23307;51.136;14.942;2023-04-24T13:42:49;21.20;98.90
37446;DHT22;23307;51.136;14.942;2023-04-24T13:45:15;21.40;98.30
37446;DHT22;23307;51.136;14.942;2023-04-24T13:47:40;21.20;97.50
37446;DHT22;23307;51.136;14.942;2023-04-24T13:50:08;20.70;97.40
37446;DHT22;23307;51.136;14.942;2023-04-24T13:52:34;20.30;97.70
37446;DHT22;23307;51.136;14.942;2023-04-24T13:54:59;20.10;98.40
37446;DHT22;23307;51.136;14.942;2023-04-24T13:57:25;20.00;99.00
37446;DHT22;23307;51.136;14.942;2023-04-24T13:59:51;19.90;99.20
37446;DHT22;23307;51.136;14.942;2023-04-24T14:02:16;19.60;99.90
37446;DHT22;23307;51.136;14.942;2023-04-24T14:04:42;19.30;99.90
37446;DHT22;23307;51.136;14.942;2023-04-24T14:07:07;19.00;99.90
37446;DHT22;23307;51.136;14.942;2023-04-24T14:09:33;18.50;99.90
37446;DHT22;23307;51.136;14.942;2023-04-24T14:11:59;18.10;99.90
37446;DHT22;23307;51.136;14.942;2023-04-24T14:14:26;17.80;99.90
37446;DHT22;23307;51.136;14.942;2023-04-24T14:16:52;17.70;99.90
37446;DHT22;23307;51.136;14.942;2023-04-24T14:19:18;17.60;99.90
37446;DHT22;23307;51.136;14.942;2023-04-24T14:21:43;17.50;99.90
37446;DHT22;23307;51.136;14.942;2023-04-24T14:24:09;17.40;99.90
37446;DHT22;23307;51.136;14.942;2023-04-24T14:26:34;17.20;99.90
37446;DHT22;23307;51.136;14.942;2023-04-24T14:29:00;17.10;99.90
37446;DHT22;23307;51.136;14.942;2023-04-24T14:31:27;16.90;99.90
37446;DHT22;23307;51.136;14.942;2023-04-24T14:33:52;16.90;99.90
37446;DHT22;23307;51.136;14.942;2023-04-24T14:36:18;16.80;99.90
37446;DHT22;23307;51.136;14.942;2023-04-24T14:38:43;16.70;99.90
37446;DHT22;23307;51.136;14.942;2023-04-24T14:41:09;16.60;99.90
37446;DHT22;23307;51.136;14.942;2023-04-24T14:43:37;16.60;99.90
37446;DHT22;23307;51.136;14.942;2023-04-24T14:46:03;16.60;99.90
37446;DHT22;23307;51.136;14.942;2023-04-24T14:48:28;16.50;99.90
37446;DHT22;23307;51.136;14.942;2023-04-24T14:50:54;16.40;99.90
37446;DHT22;23307;51.136;14.942;2023-04-24T14:53:19;16.30;99.90
37446;DHT22;23307;51.136;14.942;2023-04-24T14:55:45;16.10;99.90
37446;DHT22;23307;51.136;14.942;2023-04-24T14:58:11;16.10;99.90
37446;DHT22;23307;51.136;14.942;2023-04-24T15:00:36;16.00;99.90
37446;DHT22;23307;51.136;14.942;2023-04-24T15:03:02;15.90;99.90
37446;DHT22;23307;51.136;14.942;2023-04-24T15:05:27;15.80;99.90
37446;DHT22;23307;51.136;14.942;2023-04-24T15:07:53;15.80;99.90
37446;DHT22;23307;51.136;14.942;2023-04-24T15:10:18;15.70;99.90
37446;DHT22;23307;51.136;14.942;2023-04-24T15:12:44;15.50;99.90
37446;DHT22;23307;51.136;14.942;2023-04-24T15:15:10;15.40;99.90
37446;DHT22;23307;51.136;14.942;2023-04-24T15:17:35;15.40;99.90
37446;DHT22;23307;51.136;14.942;2023-04-24T15:20:01;15.30;99.90
37446;DHT22;23307;51.136;14.942;2023-04-24T15:22:28;15.30;99.90